Time;durP1;ratioP1;P1;durP2;ratioP2;P2;SDS_P1;SDS_P2;PMS_P1;PMS_P2;Temp;Humidity;BMP_temperature;BMP_pressure;BME280_temperature;BME280_humidity;BME280_pressure;Samples;Min_cycle;Max_cycle;Signal;HPM_P1;HPM_P2
2022/09/03 00:00:55;;;;;;;0.97;0.60;;;18.80;99.90;;;;;;4913423;29;20425;-70
2022/09/03 00:03:30;;;;;;;0.60;0.60;;;18.70;99.90;;;;;;4913965;29;20480;-70
2022/09/03 00:06:16;;;;;;;0.82;0.68;;;18.70;99.90;;;;;;4910708;29;20461;-70
2022/09/03 00:08:44;;;;;;;1.00;0.70;;;18.70;99.90;;;;;;4911262;29;20390;-71
2022/09/03 00:11:20;;;;;;;1.73;0.50;;;18.60;99.90;;;;;;4912821;29;20409;-70
2022/09/03 00:13:58;;;;;;;1.45;0.75;;;18.60;99.90;;;;;;4914003;29;20405;-70
2022/09/03 00:16:29;;;;;;;0.65;0.55;;;18.60;99.90;;;;;;4915325;29;20404;-71
2022/09/03 00:18:59;;;;;;;1.85;0.80;;;18.60;99.90;;;;;;4915341;29;20404;-70
2022/09/03 00:21:43;;;;;;;1.65;0.70;;;18.60;99.90;;;;;;4916346;29;20397;-70
2022/09/03 00:24:12;;;;;;;1.45;0.80;;;18.50;99.90;;;;;;4916845;29;20408;-70
2022/09/03 00:26:42;;;;;;;1.13;0.77;;;18.50;99.90;;;;;;4916149;29;20658;-69
2022/09/03 00:29:19;;;;;;;2.50;0.90;;;18.50;99.90;;;;;;4917704;29;20483;-69
2022/09/03 00:31:52;;;;;;;1.85;0.60;;;18.50;99.90;;;;;;4917674;29;20941;-69
2022/09/03 00:34:25;;;;;;;0.80;0.80;;;18.40;99.90;;;;;;4917331;29;20401;-70
2022/09/03 00:36:52;;;;;;;2.28;0.90;;;18.40;99.90;;;;;;4914087;29;20545;-69
2022/09/03 00:39:21;;;;;;;1.05;0.70;;;18.40;99.90;;;;;;4900438;29;20404;-70
2022/09/03 00:42:06;;;;;;;0.75;0.75;;;18.40;99.90;;;;;;4916827;29;20721;-70
2022/09/03 00:45:01;;;;;;;2.00;0.80;;;18.30;99.90;;;;;;4917850;29;20805;-71
2022/09/03 00:47:33;;;;;;;1.10;0.80;;;18.30;99.90;;;;;;4916089;29;20417;-71
2022/09/03 00:50:11;;;;;;;1.10;0.77;;;18.20;99.90;;;;;;4899869;29;20714;-71
2022/09/03 00:52:44;;;;;;;1.83;0.80;;;18.20;99.90;;;;;;4899766;29;20746;-71
2022/09/03 00:55:37;;;;;;;1.60;0.75;;;18.20;99.90;;;;;;4898053;29;20416;-71
2022/09/03 00:58:30;;;;;;;0.70;0.60;;;18.20;99.90;;;;;;4897799;29;20420;-71
2022/09/03 01:00:56;;;;;;;0.60;0.60;;;18.10;99.90;;;;;;4912896;29;20404;-71
2022/09/03 01:03:38;;;;;;;1.02;0.60;;;18.00;99.90;;;;;;4912144;29;20479;-71
2022/09/03 01:06:24;;;;;;;1.30;0.80;;;18.00;99.90;;;;;;4911670;29;20424;-71
2022/09/03 01:09:02;;;;;;;1.60;0.60;;;18.00;99.90;;;;;;4911250;29;20393;-70
2022/09/03 01:11:48;;;;;;;1.50;0.77;;;18.00;99.90;;;;;;4911679;29;20656;-70
2022/09/03 01:14:37;;;;;;;1.73;0.80;;;17.90;99.90;;;;;;4898133;29;20397;-70
2022/09/03 01:17:08;;;;;;;1.42;0.70;;;17.90;99.90;;;;;;4913998;29;20401;-70
2022/09/03 01:20:11;;;;;;;2.85;0.98;;;17.80;99.90;;;;;;4912156;29;20900;-70
2022/09/03 01:22:56;;;;;;;1.13;0.80;;;17.80;99.90;;;;;;4912323;29;20957;-70
2022/09/03 01:25:44;;;;;;;1.73;1.00;;;17.70;99.90;;;;;;4910822;29;20690;-71
2022/09/03 01:28:26;;;;;;;1.83;0.80;;;17.70;99.90;;;;;;4912606;29;20409;-70
2022/09/03 01:31:27;;;;;;;1.30;0.98;;;17.70;99.90;;;;;;4913300;29;20463;-70
2022/09/03 01:34:25;;;;;;;1.25;0.90;;;17.70;99.90;;;;;;4913685;29;20844;-70
2022/09/03 01:37:22;;;;;;;1.70;0.70;;;17.60;99.90;;;;;;4912165;29;20798;-71
2022/09/03 01:40:04;;;;;;;2.13;0.80;;;17.50;99.90;;;;;;4909865;29;20401;-70
2022/09/03 01:42:42;;;;;;;1.80;0.77;;;17.50;99.90;;;;;;4912337;29;20444;-70
2022/09/03 01:45:20;;;;;;;0.90;0.80;;;17.60;99.90;;;;;;4895500;29;20398;-70
2022/09/03 01:48:09;;;;;;;1.52;0.90;;;17.50;99.90;;;;;;4896071;29;20397;-70
2022/09/03 01:51:05;;;;;;;1.48;0.85;;;17.50;99.90;;;;;;4912527;29;20393;-70
2022/09/03 01:53:40;;;;;;;1.10;0.80;;;17.50;99.90;;;;;;4912992;29;20563;-70
2022/09/03 01:56:36;;;;;;;0.80;0.80;;;17.40;99.90;;;;;;4895775;29;20834;-70
2022/09/03 01:59:10;;;;;;;1.55;0.80;;;17.40;99.90;;;;;;4913044;29;20460;-70
2022/09/03 02:01:55;;;;;;;2.10;0.77;;;17.40;99.90;;;;;;4912111;29;20393;-70
2022/09/03 02:04:24;;;;;;;3.00;0.70;;;17.40;99.90;;;;;;4911564;29;20554;-70
2022/09/03 02:06:51;;;;;;;0.70;0.70;;;17.30;99.90;;;;;;4913011;29;20490;-74
2022/09/03 02:09:17;;;;;;;1.55;0.70;;;17.30;99.90;;;;;;4912472;29;20837;-70
2022/09/03 02:11:49;;;;;;;1.25;0.80;;;17.30;99.90;;;;;;4913045;29;20412;-70
2022/09/03 02:14:15;;;;;;;1.95;0.80;;;17.30;99.90;;;;;;4910369;29;20396;-70
2022/09/03 02:16:43;;;;;;;1.73;0.75;;;17.30;99.90;;;;;;4896606;29;20420;-70
2022/09/03 02:19:14;;;;;;;1.90;0.98;;;17.30;99.90;;;;;;4897064;29;20404;-70
2022/09/03 02:21:48;;;;;;;1.73;0.90;;;17.20;99.90;;;;;;4911038;29;20393;-70
2022/09/03 02:24:13;;;;;;;1.60;0.80;;;17.20;99.90;;;;;;4911083;29;20500;-70
2022/09/03 02:26:39;;;;;;;1.20;0.90;;;17.10;99.90;;;;;;4894316;29;20750;-70
2022/09/03 02:29:05;;;;;;;1.00;0.80;;;17.10;99.90;;;;;;4892262;29;20960;-70
2022/09/03 02:31:31;;;;;;;1.33;0.77;;;17.10;99.90;;;;;;4892812;29;20421;-70
2022/09/03 02:33:57;;;;;;;2.30;0.80;;;17.10;99.90;;;;;;4893792;29;20409;-70
2022/09/03 02:36:32;;;;;;;1.55;0.95;;;17.00;99.90;;;;;;4912788;29;20397;-70
2022/09/03 02:38:58;;;;;;;1.27;0.80;;;16.90;99.90;;;;;;4912074;29;20394;-70
2022/09/03 02:41:26;;;;;;;1.45;0.80;;;17.00;99.90;;;;;;4915422;29;20428;-70
2022/09/03 02:44:10;;;;;;;2.28;1.10;;;17.00;99.90;;;;;;4914125;29;20421;-70
2022/09/03 02:46:58;;;;;;;1.55;1.00;;;16.90;99.90;;;;;;4902206;29;20749;-70
2022/09/03 02:49:24;;;;;;;1.58;0.90;;;16.90;99.90;;;;;;4918973;29;20425;-70
2022/09/03 02:51:50;;;;;;;1.00;0.82;;;16.90;99.90;;;;;;4903139;29;20902;-70
2022/09/03 02:54:16;;;;;;;1.55;0.95;;;16.80;99.90;;;;;;4918679;29;20400;-70
2022/09/03 02:56:42;;;;;;;1.88;0.73;;;16.80;99.90;;;;;;4918992;29;20814;-70
2022/09/03 02:59:08;;;;;;;2.65;0.90;;;16.80;99.90;;;;;;4902506;29;20409;-70
2022/09/03 03:01:35;;;;;;;1.13;0.67;;;16.80;99.90;;;;;;4919083;29;20401;-70
2022/09/03 03:04:01;;;;;;;1.08;0.90;;;16.80;99.90;;;;;;4918657;29;20471;-70
2022/09/03 03:06:28;;;;;;;4.65;1.00;;;16.80;99.90;;;;;;4917090;29;20413;-70
2022/09/03 03:08:55;;;;;;;1.90;0.90;;;16.80;99.90;;;;;;4901217;29;20603;-70
2022/09/03 03:11:25;;;;;;;1.50;0.80;;;16.70;99.90;;;;;;4916993;29;20581;-70
2022/09/03 03:13:50;;;;;;;2.65;0.85;;;16.70;99.90;;;;;;4916515;29;20504;-70
2022/09/03 03:16:17;;;;;;;0.68;0.65;;;16.70;99.90;;;;;;4916569;29;20488;-70
2022/09/03 03:18:46;;;;;;;0.95;0.82;;;16.60;99.90;;;;;;4919422;29;20645;-70
2022/09/03 03:21:14;;;;;;;2.03;0.73;;;16.60;99.90;;;;;;4918854;29;20494;-70
2022/09/03 03:23:40;;;;;;;2.13;0.98;;;16.60;99.90;;;;;;4920616;29;20385;-70
2022/09/03 03:26:09;;;;;;;1.90;0.93;;;16.60;99.90;;;;;;4901591;29;20425;-70
2022/09/03 03:28:35;;;;;;;3.70;1.00;;;16.60;99.90;;;;;;4919087;29;20409;-69
2022/09/03 03:31:13;;;;;;;1.20;0.90;;;16.50;99.90;;;;;;4918092;29;20683;-69
2022/09/03 03:33:39;;;;;;;0.75;0.75;;;16.50;99.90;;;;;;4931147;29;20483;-70
2022/09/03 03:36:06;;;;;;;2.55;1.00;;;16.50;99.90;;;;;;4916468;29;20444;-69
2022/09/03 03:38:32;;;;;;;0.73;0.68;;;16.50;99.90;;;;;;4915709;29;20400;-69
2022/09/03 03:40:58;;;;;;;1.48;0.70;;;16.50;99.90;;;;;;4915815;29;20891;-69
2022/09/03 03:43:24;;;;;;;1.20;0.75;;;16.40;99.90;;;;;;4914281;29;20945;-69
2022/09/03 03:45:57;;;;;;;1.63;1.00;;;16.40;99.90;;;;;;4912036;29;21037;-70
2022/09/03 03:48:24;;;;;;;1.70;1.00;;;16.40;99.90;;;;;;4914241;29;20464;-70
2022/09/03 03:54:12;;;;;;;1.98;1.00;;;16.30;99.90;;;;;;4915427;29;20439;-69
2022/09/03 03:56:38;;;;;;;2.08;0.80;;;16.30;99.90;;;;;;4928741;29;20829;-69
2022/09/03 03:59:04;;;;;;;1.67;0.90;;;16.30;99.90;;;;;;4913072;29;20709;-69
2022/09/03 04:01:29;;;;;;;1.70;0.80;;;16.30;99.90;;;;;;4911528;29;20405;-70
2022/09/03 04:03:57;;;;;;;1.77;0.80;;;16.30;99.90;;;;;;4928199;29;20530;-70
2022/09/03 04:06:22;;;;;;;1.10;0.82;;;16.20;99.90;;;;;;4913445;29;20874;-70
2022/09/03 04:08:49;;;;;;;1.23;0.90;;;16.20;99.90;;;;;;4914558;29;20389;-70
2022/09/03 04:11:17;;;;;;;1.80;0.90;;;16.20;99.90;;;;;;4913290;29;20513;-70
2022/09/03 04:13:45;;;;;;;0.80;0.65;;;16.20;99.90;;;;;;4911738;29;20424;-70
2022/09/03 04:16:23;;;;;;;1.13;0.90;;;16.20;99.90;;;;;;4910724;29;20432;-70
2022/09/03 04:18:50;;;;;;;1.13;0.90;;;16.20;99.90;;;;;;4909763;29;20690;-70
2022/09/03 04:21:20;;;;;;;2.55;0.98;;;16.20;99.90;;;;;;4909243;29;20828;-70
2022/09/03 04:23:47;;;;;;;1.30;0.90;;;16.10;99.90;;;;;;4910499;29;20598;-70
2022/09/03 04:26:21;;;;;;;1.00;0.88;;;16.10;99.90;;;;;;4909293;29;20425;-69
2022/09/03 04:28:47;;;;;;;2.30;0.90;;;16.10;99.90;;;;;;4926009;29;20405;-69
2022/09/03 04:31:16;;;;;;;1.20;0.80;;;16.10;99.90;;;;;;4928138;29;20423;-69
2022/09/03 04:33:42;;;;;;;1.10;0.80;;;16.00;99.90;;;;;;4913276;29;20417;-69
2022/09/03 04:36:25;;;;;;;1.60;0.90;;;16.00;99.90;;;;;;4915568;29;20408;-69
2022/09/03 04:38:53;;;;;;;2.40;1.00;;;15.90;99.90;;;;;;4914963;29;20408;-69
2022/09/03 04:41:24;;;;;;;1.33;0.80;;;15.90;99.90;;;;;;4915459;29;20424;-69
2022/09/03 04:43:51;;;;;;;1.23;0.73;;;15.90;99.90;;;;;;4930345;29;20438;-69
2022/09/03 04:46:18;;;;;;;2.80;1.10;;;15.90;99.90;;;;;;4916762;29;20417;-69
2022/09/03 04:48:47;;;;;;;1.08;0.80;;;15.90;99.90;;;;;;4914323;29;20462;-69
2022/09/03 04:51:16;;;;;;;1.40;1.05;;;15.90;99.90;;;;;;4914060;29;20407;-69
2022/09/03 04:53:47;;;;;;;1.70;0.77;;;15.90;99.90;;;;;;4912733;29;20496;-69
2022/09/03 04:56:17;;;;;;;1.67;0.85;;;15.80;99.90;;;;;;4910159;29;20703;-69
2022/09/03 04:58:44;;;;;;;2.15;0.98;;;15.80;99.90;;;;;;4907246;29;20624;-69
2022/09/03 05:04:12;;;;;;;1.40;0.80;;;15.80;99.90;;;;;;4909383;29;20549;-69
2022/09/03 05:06:38;;;;;;;1.85;1.10;;;15.80;99.90;;;;;;4908850;29;20691;-69
2022/09/03 05:09:04;;;;;;;2.03;0.80;;;15.80;99.90;;;;;;4908404;29;20488;-69
2022/09/03 05:11:30;;;;;;;1.40;0.70;;;15.80;99.90;;;;;;4909900;29;20460;-69
2022/09/03 05:13:58;;;;;;;1.30;1.00;;;15.80;99.90;;;;;;4913241;29;20412;-69
2022/09/03 05:16:27;;;;;;;1.97;1.30;;;15.80;99.90;;;;;;4911676;29;20554;-69
2022/09/03 05:19:06;;;;;;;1.50;0.82;;;15.80;99.90;;;;;;4911451;29;20868;-69
2022/09/03 05:21:53;;;;;;;1.90;0.90;;;15.80;99.90;;;;;;4913535;29;20416;-69
2022/09/03 05:24:18;;;;;;;2.00;0.80;;;15.90;99.90;;;;;;4913240;29;20397;-69
2022/09/03 05:26:44;;;;;;;1.70;1.00;;;15.90;99.90;;;;;;4911946;29;20436;-69
2022/09/03 05:29:10;;;;;;;1.50;0.90;;;15.90;99.90;;;;;;4911551;29;20445;-69
2022/09/03 05:31:37;;;;;;;1.10;0.90;;;15.90;99.90;;;;;;4912698;29;20792;-69
2022/09/03 05:34:21;;;;;;;1.90;0.90;;;15.80;99.90;;;;;;5086694;27;20363;-68
2022/09/03 05:36:48;;;;;;;1.35;0.90;;;15.90;99.90;;;;;;5088750;28;20442;-70
2022/09/03 05:39:14;;;;;;;1.75;0.90;;;15.90;99.90;;;;;;5088047;28;20437;-70
2022/09/03 05:41:40;;;;;;;1.70;1.00;;;15.90;99.90;;;;;;5087987;28;20726;-70
2022/09/03 05:44:14;;;;;;;2.08;1.10;;;15.90;99.90;;;;;;5087850;28;20393;-70
2022/09/03 05:46:40;;;;;;;2.13;0.98;;;15.90;99.90;;;;;;5087160;28;20390;-71
2022/09/03 05:49:25;;;;;;;0.73;0.70;;;15.90;99.90;;;;;;5086353;28;20392;-71
2022/09/03 05:52:16;;;;;;;1.08;0.95;;;15.90;99.90;;;;;;5085516;28;20375;-71
2022/09/03 05:54:47;;;;;;;2.13;0.90;;;16.00;99.90;;;;;;5084806;28;20420;-71
2022/09/03 05:57:16;;;;;;;0.90;0.80;;;16.00;99.90;;;;;;5081254;28;20508;-71
2022/09/03 06:00:28;;;;;;;2.90;0.75;;;15.90;99.90;;;;;;5081448;28;20711;-70
2022/09/03 06:02:54;;;;;;;1.20;0.80;;;16.00;99.90;;;;;;5084266;28;20537;-70
2022/09/03 06:05:20;;;;;;;2.67;1.00;;;16.00;99.90;;;;;;5101227;28;20762;-70
2022/09/03 06:07:48;;;;;;;2.47;1.00;;;16.00;99.90;;;;;;5102920;28;20796;-70
2022/09/03 06:10:16;;;;;;;2.00;0.93;;;16.00;99.90;;;;;;5100608;28;20530;-70
2022/09/03 06:12:48;;;;;;;1.65;0.90;;;16.10;99.90;;;;;;5101221;28;20423;-70
2022/09/03 06:15:15;;;;;;;2.58;0.70;;;16.10;99.90;;;;;;5100962;28;20365;-70
2022/09/03 06:17:41;;;;;;;2.33;0.80;;;16.10;99.90;;;;;;5101733;28;20397;-70
2022/09/03 06:20:08;;;;;;;1.95;0.90;;;16.20;99.90;;;;;;5098620;28;20392;-70
2022/09/03 06:22:33;;;;;;;2.67;0.98;;;16.20;99.90;;;;;;5097892;28;20374;-70
2022/09/03 06:24:59;;;;;;;1.37;0.70;;;16.20;99.90;;;;;;5097168;28;20396;-70
2022/09/03 06:27:27;;;;;;;1.80;0.97;;;16.20;99.90;;;;;;5098118;28;20435;-70
2022/09/03 06:29:53;;;;;;;2.10;1.10;;;16.20;99.90;;;;;;5099091;28;20758;-69
2022/09/03 06:32:19;;;;;;;1.27;0.93;;;16.20;99.90;;;;;;5098305;28;20609;-69
2022/09/03 06:34:45;;;;;;;1.30;0.90;;;16.30;99.90;;;;;;5099604;28;20695;-70
2022/09/03 06:37:10;;;;;;;1.65;0.90;;;16.30;99.90;;;;;;5100553;28;20478;-70
2022/09/03 06:39:36;;;;;;;1.70;0.90;;;16.30;99.90;;;;;;5099039;28;20385;-69
2022/09/03 06:42:08;;;;;;;0.70;0.70;;;16.40;99.90;;;;;;5100373;28;20396;-70
2022/09/03 06:44:34;;;;;;;1.42;0.80;;;16.40;99.90;;;;;;5091743;28;20409;-69
2022/09/03 06:47:00;;;;;;;2.08;1.15;;;16.40;99.90;;;;;;5090346;28;20740;-70
2022/09/03 06:49:26;;;;;;;1.38;0.90;;;16.40;99.90;;;;;;5088155;28;20374;-69
2022/09/03 06:51:52;;;;;;;2.72;0.90;;;16.40;99.90;;;;;;5087091;28;20381;-69
2022/09/03 06:54:17;;;;;;;1.05;0.75;;;16.50;99.90;;;;;;5087823;28;20804;-69
2022/09/03 06:56:43;;;;;;;2.85;1.02;;;16.50;99.90;;;;;;5089210;28;20382;-69
2022/09/03 06:59:11;;;;;;;1.13;0.80;;;16.60;99.90;;;;;;5087915;28;20378;-70
2022/09/03 07:01:39;;;;;;;2.03;0.80;;;16.60;99.90;;;;;;5083870;28;20377;-69
2022/09/03 07:04:06;;;;;;;1.88;1.10;;;16.60;99.90;;;;;;5084472;28;20841;-69
2022/09/03 07:06:38;;;;;;;1.60;0.90;;;16.60;99.90;;;;;;5085190;28;20861;-69
2022/09/03 07:09:05;;;;;;;1.88;1.00;;;16.60;99.90;;;;;;5085930;28;20770;-70
2022/09/03 07:11:34;;;;;;;1.58;0.88;;;16.70;99.90;;;;;;5082207;28;20532;-70
2022/09/03 07:14:00;;;;;;;0.90;0.80;;;16.70;99.90;;;;;;5079065;28;20728;-70
2022/09/03 07:16:32;;;;;;;1.10;0.90;;;16.70;99.90;;;;;;5081099;28;20685;-70
2022/09/03 07:18:59;;;;;;;1.23;0.95;;;16.80;99.90;;;;;;5081228;28;20416;-70
2022/09/03 07:21:27;;;;;;;2.15;0.93;;;16.90;99.90;;;;;;5079939;28;20793;-70
2022/09/03 07:23:54;;;;;;;2.47;0.98;;;16.90;99.90;;;;;;5080072;28;20697;-70
2022/09/03 07:26:23;;;;;;;1.02;0.90;;;17.00;99.90;;;;;;5081355;28;20476;-70
2022/09/03 07:28:50;;;;;;;1.38;0.93;;;17.00;99.90;;;;;;5082976;28;20378;-70
2022/09/03 07:31:24;;;;;;;1.45;1.00;;;17.00;99.90;;;;;;5083374;28;20807;-70
2022/09/03 07:33:56;;;;;;;2.67;1.00;;;17.10;99.90;;;;;;5081876;28;20650;-70
2022/09/03 07:36:25;;;;;;;2.45;1.10;;;17.10;99.90;;;;;;5080709;28;20650;-71
2022/09/03 07:38:54;;;;;;;1.30;0.80;;;17.20;99.90;;;;;;5079369;28;20643;-70
2022/09/03 07:41:21;;;;;;;1.50;0.70;;;17.20;99.90;;;;;;5079452;28;20392;-71
2022/09/03 07:43:47;;;;;;;2.80;0.90;;;17.30;99.90;;;;;;5079731;28;20757;-71
2022/09/03 07:46:22;;;;;;;3.08;1.20;;;17.40;99.90;;;;;;5087830;28;20408;-70
2022/09/03 07:49:02;;;;;;;2.25;1.00;;;17.40;99.90;;;;;;5087914;28;20809;-70
2022/09/03 07:52:18;;;;;;;1.37;0.97;;;17.40;99.90;;;;;;5081690;28;20458;-70
2022/09/03 07:58:06;;;;;;;1.80;1.00;;;17.50;99.90;;;;;;5086247;28;20357;-71
2022/09/03 08:00:32;;;;;;;1.70;1.00;;;17.60;99.90;;;;;;5079559;28;21058;-71
2022/09/03 08:03:04;;;;;;;1.95;0.93;;;17.60;99.90;;;;;;5080734;28;20425;-71
2022/09/03 08:05:35;;;;;;;1.38;0.82;;;17.70;99.90;;;;;;5078991;28;20587;-71
2022/09/03 08:08:02;;;;;;;1.83;1.00;;;17.70;99.90;;;;;;5081123;28;20370;-71
2022/09/03 08:10:30;;;;;;;1.67;0.90;;;17.80;99.90;;;;;;5080827;28;20450;-70
2022/09/03 08:12:57;;;;;;;1.58;0.90;;;17.90;99.90;;;;;;5082074;28;20398;-71
2022/09/03 08:15:24;;;;;;;1.60;1.00;;;18.00;99.90;;;;;;5084145;28;20374;-70
2022/09/03 08:17:49;;;;;;;2.10;0.93;;;18.00;99.90;;;;;;5080975;28;20562;-71
2022/09/03 08:20:15;;;;;;;2.77;1.00;;;18.10;99.90;;;;;;5079113;28;20541;-70
2022/09/03 08:22:41;;;;;;;2.88;0.93;;;18.20;99.90;;;;;;5078553;28;20575;-70
2022/09/03 08:25:07;;;;;;;1.17;0.82;;;18.20;99.90;;;;;;5081433;28;20540;-70
2022/09/03 08:27:33;;;;;;;1.10;1.00;;;18.30;99.90;;;;;;5083369;28;20747;-71
2022/09/03 08:29:59;;;;;;;1.42;0.90;;;18.40;99.90;;;;;;5081457;28;20488;-70
2022/09/03 08:32:25;;;;;;;1.95;0.90;;;18.40;99.90;;;;;;5078862;28;20594;-70
2022/09/03 08:34:51;;;;;;;1.15;1.00;;;18.40;99.90;;;;;;5078604;28;20386;-69
2022/09/03 08:37:17;;;;;;;2.40;1.07;;;18.50;99.90;;;;;;5075828;28;20387;-69
2022/09/03 08:39:44;;;;;;;1.52;0.93;;;18.60;99.90;;;;;;5075167;28;20714;-70
2022/09/03 08:42:28;;;;;;;1.50;0.90;;;18.60;99.90;;;;;;5075051;28;20378;-71
2022/09/03 08:44:58;;;;;;;1.10;0.90;;;18.70;99.90;;;;;;5073523;28;20787;-70
2022/09/03 08:47:45;;;;;;;2.67;1.00;;;18.70;99.90;;;;;;5075758;28;20402;-70
2022/09/03 08:50:25;;;;;;;1.75;1.10;;;18.70;99.90;;;;;;5075428;28;20440;-71
2022/09/03 08:53:00;;;;;;;2.25;0.80;;;18.70;99.90;;;;;;5074922;28;20943;-71
2022/09/03 08:55:35;;;;;;;1.10;0.80;;;18.60;99.90;;;;;;5077049;28;20800;-70
2022/09/03 08:58:19;;;;;;;1.13;0.98;;;18.60;99.90;;;;;;5080296;28;20588;-71
2022/09/03 09:01:05;;;;;;;1.50;0.98;;;18.60;99.90;;;;;;5081175;28;20374;-71
2022/09/03 09:03:46;;;;;;;2.58;1.00;;;18.70;99.90;;;;;;5080065;28;20436;-71
2022/09/03 09:06:29;;;;;;;1.87;1.10;;;18.80;99.90;;;;;;5079064;28;20927;-70
2022/09/03 09:09:10;;;;;;;1.87;0.80;;;18.90;99.90;;;;;;5077470;28;20458;-70
2022/09/03 09:11:55;;;;;;;1.33;1.00;;;19.00;99.90;;;;;;5078753;28;20386;-70
2022/09/03 09:14:38;;;;;;;1.10;1.00;;;19.10;99.90;;;;;;5080073;28;20707;-70
2022/09/03 09:17:30;;;;;;;1.15;0.98;;;19.20;99.90;;;;;;5079177;28;20744;-71
2022/09/03 09:20:10;;;;;;;1.67;1.13;;;19.20;99.90;;;;;;5077308;28;20441;-70
2022/09/03 09:22:57;;;;;;;1.13;0.90;;;19.30;99.90;;;;;;5079097;28;20382;-70
2022/09/03 09:25:25;;;;;;;2.20;1.00;;;19.30;99.90;;;;;;5080034;28;20470;-70
2022/09/03 09:28:03;;;;;;;2.65;1.00;;;19.30;99.90;;;;;;5081248;28;20390;-69
2022/09/03 09:30:30;;;;;;;2.70;1.10;;;19.50;99.90;;;;;;5079002;28;20488;-69
2022/09/03 09:32:56;;;;;;;1.40;1.00;;;19.50;99.90;;;;;;5081529;28;20732;-71
2022/09/03 09:35:23;;;;;;;2.40;1.00;;;19.60;99.90;;;;;;5080001;28;20544;-71
2022/09/03 09:37:54;;;;;;;2.00;0.90;;;19.70;99.90;;;;;;5078869;28;20509;-71
2022/09/03 09:40:34;;;;;;;1.52;1.00;;;19.70;99.90;;;;;;5079200;28;20525;-71
2022/09/03 09:43:09;;;;;;;4.47;1.00;;;19.80;99.90;;;;;;5079427;28;20735;-70
2022/09/03 09:45:41;;;;;;;1.50;0.80;;;19.90;99.90;;;;;;5076912;28;20514;-71
2022/09/03 09:48:33;;;;;;;1.80;0.80;;;19.90;99.90;;;;;;5073092;28;20433;-71
2022/09/03 09:51:25;;;;;;;2.50;0.87;;;20.00;99.90;;;;;;5075311;28;20373;-72
2022/09/03 09:54:18;;;;;;;2.35;0.90;;;20.10;99.90;;;;;;5077416;28;20413;-71
2022/09/03 09:56:46;;;;;;;2.20;1.00;;;20.10;99.90;;;;;;5077489;28;20869;-71
2022/09/03 09:59:14;;;;;;;1.20;0.70;;;20.10;99.90;;;;;;5076528;28;20934;-72
2022/09/03 10:01:43;;;;;;;3.30;0.90;;;20.20;99.90;;;;;;5077653;28;20627;-70
2022/09/03 10:04:11;;;;;;;1.02;0.90;;;20.20;99.90;;;;;;5079509;28;20449;-70
2022/09/03 10:06:54;;;;;;;3.55;1.00;;;20.40;99.90;;;;;;5083124;28;20463;-70
2022/09/03 10:09:23;;;;;;;2.17;1.03;;;20.40;99.90;;;;;;5082214;28;20378;-70
2022/09/03 10:12:13;;;;;;;1.85;0.90;;;20.40;99.90;;;;;;5082683;28;20908;-70
2022/09/03 10:15:02;;;;;;;2.17;1.00;;;20.40;99.90;;;;;;5084590;28;20397;-71
2022/09/03 10:17:58;;;;;;;2.10;1.00;;;20.50;99.90;;;;;;5088047;28;20939;-70
2022/09/03 10:20:36;;;;;;;2.38;0.80;;;20.60;99.90;;;;;;5087828;28;20983;-70
2022/09/03 10:23:24;;;;;;;2.27;0.90;;;20.60;99.90;;;;;;5088321;28;20843;-70
2022/09/03 10:26:07;;;;;;;3.40;0.90;;;20.80;99.90;;;;;;5086941;28;20387;-70
2022/09/03 10:28:40;;;;;;;1.42;0.90;;;20.90;99.90;;;;;;5084740;28;20673;-70
2022/09/03 10:31:43;;;;;;;3.30;1.33;;;20.90;99.90;;;;;;5086635;28;20409;-70
2022/09/03 10:34:33;;;;;;;1.88;1.30;;;20.90;99.90;;;;;;5084697;28;20405;-70
2022/09/03 10:37:06;;;;;;;1.50;0.90;;;20.90;99.90;;;;;;5085194;28;20385;-70
2022/09/03 10:39:45;;;;;;;1.70;1.10;;;20.90;99.90;;;;;;5086352;28;20374;-70
2022/09/03 10:42:36;;;;;;;4.72;1.27;;;20.90;99.90;;;;;;5087741;28;20455;-70
2022/09/03 10:45:28;;;;;;;4.45;1.15;;;20.80;99.90;;;;;;5085455;28;20461;-70
2022/09/03 10:48:12;;;;;;;2.45;1.00;;;20.80;99.90;;;;;;5085561;28;20729;-71
2022/09/03 10:50:54;;;;;;;4.65;1.23;;;20.80;99.90;;;;;;5086796;28;20385;-70
2022/09/03 10:53:39;;;;;;;2.67;1.30;;;20.90;99.90;;;;;;5085538;28;20481;-70
2022/09/03 10:56:19;;;;;;;2.22;1.10;;;21.20;99.90;;;;;;5084309;28;20670;-72
2022/09/03 10:59:04;;;;;;;2.75;1.20;;;21.40;99.90;;;;;;5085699;28;20713;-71
2022/09/03 11:01:51;;;;;;;2.83;1.10;;;21.80;99.90;;;;;;5087680;28;20389;-70
2022/09/03 11:04:51;;;;;;;7.10;1.60;;;21.90;99.90;;;;;;5085509;28;20492;-70
2022/09/03 11:07:22;;;;;;;5.68;1.30;;;22.10;99.90;;;;;;5086909;28;20409;-70
2022/09/03 11:10:04;;;;;;;3.03;1.03;;;22.40;99.90;;;;;;5084895;28;20640;-70
2022/09/03 11:12:37;;;;;;;1.20;0.90;;;22.40;99.90;;;;;;5083696;28;20405;-71
2022/09/03 11:15:27;;;;;;;5.00;1.25;;;22.70;99.90;;;;;;5081197;28;20378;-69
2022/09/03 11:18:02;;;;;;;4.57;1.02;;;23.00;99.00;;;;;;5068736;28;20400;-70
2022/09/03 11:20:29;;;;;;;3.10;1.15;;;23.20;98.70;;;;;;5078695;28;20378;-70
2022/09/03 11:22:59;;;;;;;4.03;1.10;;;23.40;97.60;;;;;;5079972;28;20413;-70
2022/09/03 11:25:33;;;;;;;7.00;1.80;;;23.40;96.10;;;;;;5080211;28;20470;-71
2022/09/03 11:28:17;;;;;;;5.10;1.93;;;23.50;99.90;;;;;;5078080;28;20390;-62
2022/09/03 11:31:04;;;;;;;3.97;1.65;;;23.60;99.90;;;;;;5078698;28;20471;-62
2022/09/03 11:33:32;;;;;;;7.30;1.60;;;23.30;99.60;;;;;;5078344;28;20414;-62
2022/09/03 11:36:00;;;;;;;4.40;1.70;;;23.10;99.90;;;;;;5081765;28;20386;-62
2022/09/03 11:38:30;;;;;;;3.60;1.60;;;22.90;99.90;;;;;;5084187;28;20381;-63
2022/09/03 11:41:25;;;;;;;3.13;1.30;;;22.70;99.40;;;;;;5086728;28;20378;-63
2022/09/03 11:43:50;;;;;;;5.00;1.00;;;22.90;99.20;;;;;;5084707;28;20898;-63
2022/09/03 11:46:23;;;;;;;1.42;1.00;;;23.20;97.50;;;;;;5085471;28;21045;-62
2022/09/03 11:48:54;;;;;;;2.50;1.25;;;23.70;98.00;;;;;;5084933;28;21028;-62
2022/09/03 11:51:36;;;;;;;3.45;0.88;;;23.90;96.50;;;;;;5085727;28;21009;-62
2022/09/03 11:54:19;;;;;;;3.45;1.27;;;23.90;95.30;;;;;;5084565;28;20467;-63
2022/09/03 11:56:48;;;;;;;2.25;0.85;;;24.10;95.30;;;;;;5081929;28;20385;-63
2022/09/03 11:59:16;;;;;;;5.45;1.20;;;24.20;95.80;;;;;;5083539;28;20469;-61
2022/09/03 12:01:52;;;;;;;2.80;1.00;;;24.40;94.00;;;;;;5084148;28;21030;-62
2022/09/03 12:04:24;;;;;;;1.67;0.80;;;24.20;93.90;;;;;;5080884;28;20686;-63
2022/09/03 12:07:20;;;;;;;3.88;1.00;;;24.00;93.60;;;;;;5083844;28;20454;-62
2022/09/03 12:10:01;;;;;;;3.33;1.25;;;23.80;93.40;;;;;;5082502;28;20385;-62
2022/09/03 12:13:05;;;;;;;3.92;2.28;;;24.10;93.80;;;;;;5082886;28;20462;-62
2022/09/03 12:15:42;;;;;;;1.90;1.02;;;24.50;94.10;;;;;;5080947;28;20370;-63
2022/09/03 12:18:19;;;;;;;2.60;1.10;;;24.60;92.80;;;;;;5081352;28;20398;-63
2022/09/03 12:20:54;;;;;;;6.38;1.20;;;24.70;93.10;;;;;;5079828;28;20404;-62
2022/09/03 12:23:41;;;;;;;2.60;0.97;;;24.60;92.50;;;;;;5080016;28;20796;-62
2022/09/03 12:26:13;;;;;;;2.10;1.05;;;24.40;93.20;;;;;;5080721;28;21028;-62
2022/09/03 12:28:41;;;;;;;1.33;1.00;;;24.40;91.90;;;;;;5081239;28;20397;-62
2022/09/03 12:31:19;;;;;;;2.00;1.00;;;24.40;92.40;;;;;;5081635;28;21011;-63
2022/09/03 12:33:47;;;;;;;2.90;1.10;;;24.40;92.50;;;;;;5079481;28;20416;-71
2022/09/03 12:36:13;;;;;;;2.70;1.47;;;24.60;91.00;;;;;;5082364;28;20422;-71
2022/09/03 12:38:39;;;;;;;1.40;1.00;;;25.10;90.80;;;;;;5084329;28;20378;-71
2022/09/03 12:41:20;;;;;;;3.15;1.30;;;25.40;89.40;;;;;;5087223;28;20447;-71
2022/09/03 12:43:52;;;;;;;2.40;0.90;;;25.60;86.80;;;;;;5067662;28;20837;-71
2022/09/03 12:46:21;;;;;;;1.70;0.80;;;25.80;84.50;;;;;;5083668;28;20456;-71
2022/09/03 12:49:06;;;;;;;1.73;1.30;;;25.80;84.70;;;;;;5087383;28;20412;-70
2022/09/03 12:51:38;;;;;;;2.70;1.90;;;26.20;85.90;;;;;;5086923;28;20405;-71
2022/09/03 12:54:13;;;;;;;3.95;1.70;;;26.40;83.90;;;;;;5085487;28;20406;-71
2022/09/03 12:56:41;;;;;;;3.40;1.20;;;26.00;81.50;;;;;;5084384;28;20374;-70
2022/09/03 12:59:15;;;;;;;1.10;1.00;;;25.60;81.40;;;;;;5085696;28;20681;-71
2022/09/03 13:01:54;;;;;;;1.33;0.98;;;25.40;82.10;;;;;;5085716;28;20413;-70
2022/09/03 13:04:33;;;;;;;3.40;1.35;;;25.70;82.20;;;;;;5086858;28;20421;-71
2022/09/03 13:07:04;;;;;;;2.75;1.20;;;26.20;83.40;;;;;;5070793;28;20382;-71
2022/09/03 13:09:33;;;;;;;4.07;2.10;;;26.30;79.80;;;;;;5084212;28;20386;-71
2022/09/03 13:12:00;;;;;;;2.50;1.80;;;26.60;80.30;;;;;;5084647;28;20900;-71
2022/09/03 13:14:26;;;;;;;2.05;1.20;;;27.00;77.70;;;;;;5084744;28;20994;-71
2022/09/03 13:17:26;;;;;;;2.00;1.00;;;27.20;77.00;;;;;;5085971;28;20413;-71
2022/09/03 13:20:05;;;;;;;2.05;0.90;;;27.50;76.50;;;;;;5088855;28;20382;-71
2022/09/03 13:22:43;;;;;;;1.25;0.90;;;27.30;76.00;;;;;;5087789;28;20727;-71
2022/09/03 13:25:14;;;;;;;2.78;0.75;;;27.50;75.40;;;;;;5087815;28;20622;-72
2022/09/03 13:28:05;;;;;;;2.70;0.95;;;27.70;75.50;;;;;;5088239;28;20416;-71
2022/09/03 13:31:11;;;;;;;2.22;1.35;;;27.90;73.20;;;;;;5088351;28;20405;-71
2022/09/03 13:33:49;;;;;;;3.97;1.65;;;27.90;71.10;;;;;;5065211;28;20417;-71